Información del aeropuerto EGJJ

Información de pista
Pista 09 Longitud 5597 ft Anchura 151 ft
Elevación 270 ft Umbral 200 ft Rumbo 83
Pista 27 Longitud 5597 ft Anchura 151 ft
Elevación 271 ft Umbral 299 ft Rumbo 263
Frecuencias del aeropuerto
Tipo APP Nombre APP Frecuencia 120.3 MHZ
Tipo ATIS Nombre INFO Frecuencia 112.2 MHZ
Tipo GND Nombre GND Frecuencia 121.9 MHZ
Tipo RDR Nombre RDR Frecuencia 118.55 MHZ
Tipo TWR Nombre TWR Frecuencia 119.45 MHZ
Radioayudas del aeropuerto
Tipo VOR-DME Nombre Jersey Frecuencia 112200 KHZ
Información meteorológica del aeropuerto y NOTAM
ADDS - METARS form results

(1549 UTC 24 November 2020)
Data provider http://aviationweather.gov/metar/data/
 
METAR text: EGJJ 241520Z 17013KT CAVOK 11/07 Q1014
Conditions at: EGJJ (JERSEY AIRPORT , GB) observed 1520 UTC 24 November 2020
Temperature: 11.0°C (52°F)
Dewpoint: 7.0°C (45°F) [RH = 76%]
Pressure (altimeter): 29.94 inches Hg (1014.0 mb)
Winds: from the S (170 degrees) at 15 MPH (13 knots; 6.7 m/s)
Visibility: 6 or more miles (10+ km)
Ceiling: ceiling and visibility are OK
Clouds: unknown
Weather: no significant weather observed at this time

METAR text: EGJJ 241450Z 16015KT CAVOK 10/07 Q1014
Conditions at: EGJJ (JERSEY AIRPORT , GB) observed 1450 UTC 24 November 2020
Temperature: 10.0°C (50°F)
Dewpoint: 7.0°C (45°F) [RH = 82%]
Pressure (altimeter): 29.94 inches Hg (1014.0 mb)
Winds: from the SSE (160 degrees) at 17 MPH (15 knots; 7.7 m/s)
Visibility: 6 or more miles (10+ km)
Ceiling: ceiling and visibility are OK
Clouds: unknown
Weather: no significant weather observed at this time

Forecast for: EGJJ (JERSEY AIRPORT , GB)
Text: TAF EGJJ 241357Z 2415/2500 16016KT 9999 FEW018
Forecast period: 1500 UTC 24 November 2020 to 0000 UTC 25 November 2020
Forecast type: FROM: standard forecast or significant change
Winds: from the SSE (160 degrees) at 18 MPH (16 knots; 8.2 m/s)
Visibility: 6 or more miles (10+ km)
Ceiling: at least 12,000 feet AGL
Clouds: few clouds at 1800 feet AGL
Weather: no significant weather forecast for this period
Text: PROB40
Forecast period: 1800 UTC 24 November 2020 to 0000 UTC 25 November 2020
Forecast type: TEMPORARY: The following changes expected for less than half the time period
Visibility: missing
Ceiling: 1800 feet AGL
Clouds: broken clouds at 1800 feet AGL
Weather: no significant weather forecast for this period
Text: TEMPO 2418/2500 BKN018
Forecast period: 2200 UTC 24 November 2020 to 0000 UTC 25 November 2020
Forecast type: TEMPORARY: The following changes expected for less than half the time period
Visibility: missing
Ceiling: 1000 feet AGL
Clouds: broken clouds at 1000 feet AGL
Weather: no significant weather forecast for this period